sensor_id;sensor_type;location;lat;lon;timestamp;pressure;altitude;pressure_sealevel;temperature
61189;BMP280;47054;39.716;2.904;2023-01-09T00:00:14;99926.28;;;18.00
61189;BMP280;47054;39.716;2.904;2023-01-09T00:02:59;99901.72;;;17.87
61189;BMP280;47054;39.716;2.904;2023-01-09T00:05:44;99925.53;;;17.99
61189;BMP280;47054;39.716;2.904;2023-01-09T00:08:28;99920.19;;;17.99
61189;BMP280;47054;39.716;2.904;2023-01-09T00:11:13;99923.97;;;17.94
61189;BMP280;47054;39.716;2.904;2023-01-09T00:13:58;99930.91;;;17.99
61189;BMP280;47054;39.716;2.904;2023-01-09T00:16:42;99928.22;;;17.99
61189;BMP280;47054;39.716;2.904;2023-01-09T00:19:27;99910.19;;;18.00
61189;BMP280;47054;39.716;2.904;2023-01-09T00:22:11;99914.03;;;17.99
61189;BMP280;47054;39.716;2.904;2023-01-09T00:24:55;99902.13;;;18.00
61189;BMP280;47054;39.716;2.904;2023-01-09T00:27:40;99897.16;;;17.98
61189;BMP280;47054;39.716;2.904;2023-01-09T00:30:25;99890.66;;;17.99
61189;BMP280;47054;39.716;2.904;2023-01-09T00:33:10;99872.63;;;18.00
61189;BMP280;47054;39.716;2.904;2023-01-09T00:35:55;99877.25;;;17.99
61189;BMP280;47054;39.716;2.904;2023-01-09T00:38:40;99862.69;;;18.00
61189;BMP280;47054;39.716;2.904;2023-01-09T00:41:33;99864.59;;;17.96
61189;BMP280;47054;39.716;2.904;2023-01-09T00:44:30;99863.47;;;18.01
61189;BMP280;47054;39.716;2.904;2023-01-09T00:47:24;99872.63;;;18.00
61189;BMP280;47054;39.716;2.904;2023-01-09T00:50:14;99849.66;;;17.99
61189;BMP280;47054;39.716;2.904;2023-01-09T00:53:04;99848.09;;;17.98
61189;BMP280;47054;39.716;2.904;2023-01-09T00:55:50;99848.88;;;17.98
61189;BMP280;47054;39.716;2.904;2023-01-09T00:58:36;99849.66;;;17.99
61189;BMP280;47054;39.716;2.904;2023-01-09T01:01:21;99848.50;;;17.96
61189;BMP280;47054;39.716;2.904;2023-01-09T01:04:05;99850.78;;;17.98
61189;BMP280;47054;39.716;2.904;2023-01-09T01:07:08;99850.78;;;17.98
61189;BMP280;47054;39.716;2.904;2023-01-09T01:10:15;99849.66;;;17.99
61189;BMP280;47054;39.716;2.904;2023-01-09T01:13:00;99840.06;;;17.98
61189;BMP280;47054;39.716;2.904;2023-01-09T01:15:45;99857.69;;;17.99
61189;BMP280;47054;39.716;2.904;2023-01-09T01:18:30;99853.13;;;17.99
61189;BMP280;47054;39.716;2.904;2023-01-09T01:21:15;99860.00;;;17.97
61189;BMP280;47054;39.716;2.904;2023-01-09T01:24:00;99845.06;;;17.99
61189;BMP280;47054;39.716;2.904;2023-01-09T01:26:45;99845.81;;;18.00
61189;BMP280;47054;39.716;2.904;2023-01-09T01:29:30;99851.94;;;18.00
61189;BMP280;47054;39.716;2.904;2023-01-09T01:32:15;99857.31;;;18.00
61189;BMP280;47054;39.716;2.904;2023-01-09T01:35:00;99859.22;;;18.00
61189;BMP280;47054;39.716;2.904;2023-01-09T01:37:45;99862.69;;;18.00
61189;BMP280;47054;39.716;2.904;2023-01-09T01:40:32;99853.13;;;17.99
61189;BMP280;47054;39.716;2.904;2023-01-09T01:43:17;99866.53;;;17.99
61189;BMP280;47054;39.716;2.904;2023-01-09T01:46:02;99862.69;;;18.00
61189;BMP280;47054;39.716;2.904;2023-01-09T01:48:51;99861.91;;;18.00
61189;BMP280;47054;39.716;2.904;2023-01-09T01:51:41;99874.94;;;18.01
61189;BMP280;47054;39.716;2.904;2023-01-09T01:54:29;99871.88;;;17.99
61189;BMP280;47054;39.716;2.904;2023-01-09T01:57:15;99865.34;;;17.97
61189;BMP280;47054;39.716;2.904;2023-01-09T02:00:00;99871.88;;;17.99
61189;BMP280;47054;39.716;2.904;2023-01-09T02:02:49;99873.78;;;17.99
61189;BMP280;47054;39.716;2.904;2023-01-09T02:05:35;99859.22;;;18.00
61189;BMP280;47054;39.716;2.904;2023-01-09T02:08:20;99864.19;;;18.01
61189;BMP280;47054;39.716;2.904;2023-01-09T02:11:05;99869.56;;;18.01
61189;BMP280;47054;39.716;2.904;2023-01-09T02:13:50;99881.47;;;18.00
61189;BMP280;47054;39.716;2.904;2023-01-09T02:17:07;99871.50;;;18.01
61189;BMP280;47054;39.716;2.904;2023-01-09T02:23:17;99891.41;;;18.00
61189;BMP280;47054;39.716;2.904;2023-01-09T02:38:31;99876.88;;;17.97
61189;BMP280;47054;39.716;2.904;2023-01-09T02:44:34;99886.81;;;17.97
61189;BMP280;47054;39.716;2.904;2023-01-09T02:50:08;99894.47;;;17.94
61189;BMP280;47054;39.716;2.904;2023-01-09T02:53:44;99897.16;;;17.98
61189;BMP280;47054;39.716;2.904;2023-01-09T02:57:04;99895.63;;;17.97
61189;BMP280;47054;39.716;2.904;2023-01-09T03:02:55;99866.88;;;17.98
61189;BMP280;47054;39.716;2.904;2023-01-09T03:05:46;99864.56;;;17.92
61189;BMP280;47054;39.716;2.904;2023-01-09T03:08:39;99883.75;;;17.98
61189;BMP280;47054;39.716;2.904;2023-01-09T03:11:27;99893.31;;;17.95
61189;BMP280;47054;39.716;2.904;2023-01-09T03:14:17;99885.31;;;17.99
61189;BMP280;47054;39.716;2.904;2023-01-09T03:17:05;99886.41;;;17.94
61189;BMP280;47054;39.716;2.904;2023-01-09T03:19:52;99884.53;;;17.99
61189;BMP280;47054;39.716;2.904;2023-01-09T03:22:39;99885.31;;;17.99
61189;BMP280;47054;39.716;2.904;2023-01-09T03:25:25;99894.09;;;18.00
61189;BMP280;47054;39.716;2.904;2023-01-09T03:28:28;99892.97;;;18.01
61189;BMP280;47054;39.716;2.904;2023-01-09T03:31:13;99897.88;;;17.91
61189;BMP280;47054;39.716;2.904;2023-01-09T03:33:58;99902.91;;;17.93
61189;BMP280;47054;39.716;2.904;2023-01-09T03:36:42;99914.00;;;17.95
61189;BMP280;47054;39.716;2.904;2023-01-09T03:39:26;99927.06;;;17.97
61189;BMP280;47054;39.716;2.904;2023-01-09T03:42:11;99931.25;;;17.98
61189;BMP280;47054;39.716;2.904;2023-01-09T03:44:56;99936.25;;;17.99
61189;BMP280;47054;39.716;2.904;2023-01-09T03:47:40;99944.31;;;17.99
61189;BMP280;47054;39.716;2.904;2023-01-09T03:50:25;99938.19;;;17.99
61189;BMP280;47054;39.716;2.904;2023-01-09T03:53:09;99926.66;;;17.98
61189;BMP280;47054;39.716;2.904;2023-01-09T03:55:56;99947.75;;;18.00
61189;BMP280;47054;39.716;2.904;2023-01-09T03:58:41;99935.09;;;18.00
61189;BMP280;47054;39.716;2.904;2023-01-09T04:01:25;99930.53;;;18.01
61189;BMP280;47054;39.716;2.904;2023-01-09T04:04:10;99941.25;;;18.01
61189;BMP280;47054;39.716;2.904;2023-01-09T04:06:55;99941.25;;;18.01
61189;BMP280;47054;39.716;2.904;2023-01-09T04:09:39;99945.84;;;18.00
61189;BMP280;47054;39.716;2.904;2023-01-09T04:12:24;99938.56;;;18.01
61189;BMP280;47054;39.716;2.904;2023-01-09T04:15:08;99947.38;;;18.01
61189;BMP280;47054;39.716;2.904;2023-01-09T04:17:53;99952.72;;;18.01
61189;BMP280;47054;39.716;2.904;2023-01-09T04:20:38;99958.09;;;18.01
61189;BMP280;47054;39.716;2.904;2023-01-09T04:23:22;99958.88;;;18.02
61189;BMP280;47054;39.716;2.904;2023-01-09T04:26:06;99960.78;;;18.01
61189;BMP280;47054;39.716;2.904;2023-01-09T04:28:51;99961.56;;;18.02
61189;BMP280;47054;39.716;2.904;2023-01-09T04:31:35;99956.97;;;18.02
61189;BMP280;47054;39.716;2.904;2023-01-09T04:34:20;99963.88;;;18.03
61189;BMP280;47054;39.716;2.904;2023-01-09T04:37:08;99961.56;;;18.02
61189;BMP280;47054;39.716;2.904;2023-01-09T04:39:53;99964.22;;;18.02
61189;BMP280;47054;39.716;2.904;2023-01-09T04:42:41;99965.78;;;18.03
61189;BMP280;47054;39.716;2.904;2023-01-09T04:45:27;99978.41;;;18.02
61189;BMP280;47054;39.716;2.904;2023-01-09T04:48:11;99991.06;;;18.02
61189;BMP280;47054;39.716;2.904;2023-01-09T04:50:56;99991.06;;;18.02
61189;BMP280;47054;39.716;2.904;2023-01-09T04:53:40;99991.06;;;18.02
61189;BMP280;47054;39.716;2.904;2023-01-09T04:56:25;99997.19;;;18.02
61189;BMP280;47054;39.716;2.904;2023-01-09T04:59:09;100004.13;;;18.03
61189;BMP280;47054;39.716;2.904;2023-01-09T05:01:53;99987.22;;;17.99
61189;BMP280;47054;39.716;2.904;2023-01-09T05:04:39;100010.25;;;18.04
61189;BMP280;47054;39.716;2.904;2023-01-09T05:07:24;100007.94;;;18.02
61189;BMP280;47054;39.716;2.904;2023-01-09T05:10:11;100010.22;;;18.00
61189;BMP280;47054;39.716;2.904;2023-01-09T05:12:56;100007.91;;;17.99
61189;BMP280;47054;39.716;2.904;2023-01-09T05:15:40;100014.84;;;18.03
61189;BMP280;47054;39.716;2.904;2023-01-09T05:18:25;100010.97;;;17.97
61189;BMP280;47054;39.716;2.904;2023-01-09T05:21:10;100017.53;;;18.03
61189;BMP280;47054;39.716;2.904;2023-01-09T05:23:55;100026.34;;;18.04
61189;BMP280;47054;39.716;2.904;2023-01-09T05:26:39;100032.84;;;18.03
61189;BMP280;47054;39.716;2.904;2023-01-09T05:29:24;100031.72;;;18.04
61189;BMP280;47054;39.716;2.904;2023-01-09T05:32:08;100024.81;;;18.03
61189;BMP280;47054;39.716;2.904;2023-01-09T05:34:53;100039.78;;;18.04
61189;BMP280;47054;39.716;2.904;2023-01-09T05:37:38;100038.22;;;18.03
61189;BMP280;47054;39.716;2.904;2023-01-09T05:40:23;100045.91;;;18.04
61189;BMP280;47054;39.716;2.904;2023-01-09T05:43:08;100047.81;;;18.04
61189;BMP280;47054;39.716;2.904;2023-01-09T05:45:52;100051.28;;;18.04
61189;BMP280;47054;39.716;2.904;2023-01-09T05:48:37;100057.78;;;18.03
61189;BMP280;47054;39.716;2.904;2023-01-09T05:51:22;100060.47;;;18.03
61189;BMP280;47054;39.716;2.904;2023-01-09T05:54:06;100055.88;;;18.04
61189;BMP280;47054;39.716;2.904;2023-01-09T05:56:51;100072.75;;;18.04
61189;BMP280;47054;39.716;2.904;2023-01-09T05:59:35;100067.38;;;18.04
61189;BMP280;47054;39.716;2.904;2023-01-09T06:02:20;100063.91;;;18.04
61189;BMP280;47054;39.716;2.904;2023-01-09T06:05:04;100063.09;;;18.00
61189;BMP280;47054;39.716;2.904;2023-01-09T06:07:49;100086.16;;;18.04
61189;BMP280;47054;39.716;2.904;2023-01-09T06:10:34;100092.25;;;18.05
61189;BMP280;47054;39.716;2.904;2023-01-09T06:13:18;100090.69;;;18.00
61189;BMP280;47054;39.716;2.904;2023-01-09T06:16:03;100091.53;;;18.04
61189;BMP280;47054;39.716;2.904;2023-01-09T06:18:47;100107.63;;;18.04
61189;BMP280;47054;39.716;2.904;2023-01-09T06:21:33;100099.56;;;18.04
61189;BMP280;47054;39.716;2.904;2023-01-09T06:24:18;100105.66;;;18.05
61189;BMP280;47054;39.716;2.904;2023-01-09T06:27:04;100114.47;;;18.05
61189;BMP280;47054;39.716;2.904;2023-01-09T06:29:49;100104.09;;;17.97
61189;BMP280;47054;39.716;2.904;2023-01-09T06:32:34;100131.75;;;18.04
61189;BMP280;47054;39.716;2.904;2023-01-09T06:35:18;100129.81;;;18.05
61189;BMP280;47054;39.716;2.904;2023-01-09T06:38:03;100113.00;;;18.04
61189;BMP280;47054;39.716;2.904;2023-01-09T06:40:48;100131.34;;;18.06
61189;BMP280;47054;39.716;2.904;2023-01-09T06:43:33;100142.50;;;18.04
61189;BMP280;47054;39.716;2.904;2023-01-09T06:46:19;100132.84;;;18.00
61189;BMP280;47054;39.716;2.904;2023-01-09T06:49:03;100142.06;;;18.02
61189;BMP280;47054;39.716;2.904;2023-01-09T06:51:49;100134.41;;;18.01
61189;BMP280;47054;39.716;2.904;2023-01-09T06:54:34;100135.94;;;18.05
61189;BMP280;47054;39.716;2.904;2023-01-09T06:57:19;100141.31;;;18.05
61189;BMP280;47054;39.716;2.904;2023-01-09T07:00:04;100158.19;;;18.06
61189;BMP280;47054;39.716;2.904;2023-01-09T07:02:49;100158.97;;;18.06
61189;BMP280;47054;39.716;2.904;2023-01-09T07:05:38;100162.44;;;18.07
61189;BMP280;47054;39.716;2.904;2023-01-09T07:08:25;100166.25;;;18.06
61189;BMP280;47054;39.716;2.904;2023-01-09T07:11:10;100173.91;;;18.04
61189;BMP280;47054;39.716;2.904;2023-01-09T07:13:54;100170.03;;;18.01
61189;BMP280;47054;39.716;2.904;2023-01-09T07:16:38;100186.56;;;18.07
61189;BMP280;47054;39.716;2.904;2023-01-09T07:19:23;100193.84;;;18.06
61189;BMP280;47054;39.716;2.904;2023-01-09T07:22:08;100182.75;;;18.04
61189;BMP280;47054;39.716;2.904;2023-01-09T07:24:53;100200.34;;;18.05
61189;BMP280;47054;39.716;2.904;2023-01-09T07:27:38;100219.91;;;18.06
61189;BMP280;47054;39.716;2.904;2023-01-09T07:30:23;100216.09;;;18.07
61189;BMP280;47054;39.716;2.904;2023-01-09T07:33:07;100221.47;;;18.07
61189;BMP280;47054;39.716;2.904;2023-01-09T07:35:52;100217.22;;;18.06
61189;BMP280;47054;39.716;2.904;2023-01-09T07:38:36;100226.03;;;18.06
61189;BMP280;47054;39.716;2.904;2023-01-09T07:41:21;100224.13;;;18.07
61189;BMP280;47054;39.716;2.904;2023-01-09T07:44:05;100229.50;;;18.07
61189;BMP280;47054;39.716;2.904;2023-01-09T07:46:50;100223.38;;;18.06
61189;BMP280;47054;39.716;2.904;2023-01-09T07:49:35;100232.97;;;18.07
61189;BMP280;47054;39.716;2.904;2023-01-09T07:52:19;100245.59;;;18.07
61189;BMP280;47054;39.716;2.904;2023-01-09T07:55:04;100245.59;;;18.07
61189;BMP280;47054;39.716;2.904;2023-01-09T07:57:50;100254.44;;;18.07
61189;BMP280;47054;39.716;2.904;2023-01-09T08:00:35;100246.38;;;18.07
61189;BMP280;47054;39.716;2.904;2023-01-09T08:03:20;100267.84;;;18.07
61189;BMP280;47054;39.716;2.904;2023-01-09T08:06:05;100276.69;;;18.08
61189;BMP280;47054;39.716;2.904;2023-01-09T08:08:49;100274.00;;;18.08
61189;BMP280;47054;39.716;2.904;2023-01-09T08:11:34;100293.53;;;18.08
61189;BMP280;47054;39.716;2.904;2023-01-09T08:14:19;100291.22;;;18.07
61189;BMP280;47054;39.716;2.904;2023-01-09T08:17:03;100286.16;;;18.02
61189;BMP280;47054;39.716;2.904;2023-01-09T08:19:48;100297.38;;;18.07
61189;BMP280;47054;39.716;2.904;2023-01-09T08:22:32;100305.03;;;18.09
61189;BMP280;47054;39.716;2.904;2023-01-09T08:25:17;100307.72;;;18.09
61189;BMP280;47054;39.716;2.904;2023-01-09T08:28:02;100310.00;;;18.07
61189;BMP280;47054;39.716;2.904;2023-01-09T08:30:47;100308.88;;;18.08
61189;BMP280;47054;39.716;2.904;2023-01-09T08:33:31;100324.97;;;18.08
61189;BMP280;47054;39.716;2.904;2023-01-09T08:36:16;100335.31;;;18.09
61189;BMP280;47054;39.716;2.904;2023-01-09T08:39:00;100344.13;;;18.10
61189;BMP280;47054;39.716;2.904;2023-01-09T08:41:45;100341.06;;;18.08
61189;BMP280;47054;39.716;2.904;2023-01-09T08:44:48;100342.97;;;18.07
61189;BMP280;47054;39.716;2.904;2023-01-09T08:47:51;100346.78;;;18.06
61189;BMP280;47054;39.716;2.904;2023-01-09T08:50:36;100356.41;;;18.07
61189;BMP280;47054;39.716;2.904;2023-01-09T08:53:21;100375.97;;;18.08
61189;BMP280;47054;39.716;2.904;2023-01-09T08:56:05;100370.19;;;18.09
61189;BMP280;47054;39.716;2.904;2023-01-09T08:58:50;100373.66;;;18.10
61189;BMP280;47054;39.716;2.904;2023-01-09T09:01:35;100380.91;;;18.09
61189;BMP280;47054;39.716;2.904;2023-01-09T09:04:20;100371.97;;;17.98
61189;BMP280;47054;39.716;2.904;2023-01-09T09:07:05;100409.31;;;18.10
61189;BMP280;47054;39.716;2.904;2023-01-09T09:09:51;100406.59;;;18.07
61189;BMP280;47054;39.716;2.904;2023-01-09T09:12:36;100408.53;;;18.10
61189;BMP280;47054;39.716;2.904;2023-01-09T09:15:22;100421.59;;;18.11
61189;BMP280;47054;39.716;2.904;2023-01-09T09:18:07;100417.00;;;18.12
61189;BMP280;47054;39.716;2.904;2023-01-09T09:20:52;100434.25;;;18.11
61189;BMP280;47054;39.716;2.904;2023-01-09T09:23:37;100448.44;;;18.11
61189;BMP280;47054;39.716;2.904;2023-01-09T09:26:21;100435.03;;;18.11
61189;BMP280;47054;39.716;2.904;2023-01-09T09:29:05;100440.41;;;18.11
61189;BMP280;47054;39.716;2.904;2023-01-09T09:31:50;100439.94;;;18.09
61189;BMP280;47054;39.716;2.904;2023-01-09T09:34:35;100442.69;;;18.13
61189;BMP280;47054;39.716;2.904;2023-01-09T09:37:20;100454.22;;;18.13
61189;BMP280;47054;39.716;2.904;2023-01-09T09:40:06;100460.72;;;18.12
61189;BMP280;47054;39.716;2.904;2023-01-09T09:46:35;100470.66;;;18.12
61189;BMP280;47054;39.716;2.904;2023-01-09T09:49:27;100474.47;;;18.07
61189;BMP280;47054;39.716;2.904;2023-01-09T09:55:19;100490.22;;;18.12
61189;BMP280;47054;39.716;2.904;2023-01-09T10:01:07;100491.38;;;18.11
61189;BMP280;47054;39.716;2.904;2023-01-09T10:03:57;100494.06;;;18.11
61189;BMP280;47054;39.716;2.904;2023-01-09T10:06:46;100499.06;;;18.13
61189;BMP280;47054;39.716;2.904;2023-01-09T10:09:46;100501.38;;;18.14
61189;BMP280;47054;39.716;2.904;2023-01-09T10:12:47;100502.53;;;18.13
61189;BMP280;47054;39.716;2.904;2023-01-09T10:15:41;100507.88;;;18.13
61189;BMP280;47054;39.716;2.904;2023-01-09T10:18:32;100525.91;;;18.13
61189;BMP280;47054;39.716;2.904;2023-01-09T10:21:42;100530.88;;;18.14
61189;BMP280;47054;39.716;2.904;2023-01-09T10:37:01;100524.00;;;18.13
61189;BMP280;47054;39.716;2.904;2023-01-09T10:40:01;100521.31;;;18.13
61189;BMP280;47054;39.716;2.904;2023-01-09T10:42:52;100527.47;;;18.14
61189;BMP280;47054;39.716;2.904;2023-01-09T10:45:47;100523.63;;;18.15
61189;BMP280;47054;39.716;2.904;2023-01-09T10:48:40;100530.81;;;18.07
61189;BMP280;47054;39.716;2.904;2023-01-09T10:51:39;100553.91;;;18.15
61189;BMP280;47054;39.716;2.904;2023-01-09T10:54:27;100548.94;;;18.14
61189;BMP280;47054;39.716;2.904;2023-01-09T10:57:17;100535.81;;;18.09
61189;BMP280;47054;39.716;2.904;2023-01-09T11:00:05;100559.53;;;18.07
61189;BMP280;47054;39.716;2.904;2023-01-09T11:02:51;100542.69;;;18.10
61189;BMP280;47054;39.716;2.904;2023-01-09T11:05:37;100547.72;;;18.11
61189;BMP280;47054;39.716;2.904;2023-01-09T11:08:40;100548.94;;;18.14
61189;BMP280;47054;39.716;2.904;2023-01-09T11:11:37;100545.84;;;18.15
61189;BMP280;47054;39.716;2.904;2023-01-09T11:14:26;100538.19;;;18.14
61189;BMP280;47054;39.716;2.904;2023-01-09T11:17:18;100547.78;;;18.15
61189;BMP280;47054;39.716;2.904;2023-01-09T11:20:10;100542.00;;;18.13
61189;BMP280;47054;39.716;2.904;2023-01-09T11:22:58;100545.84;;;18.15
61189;BMP280;47054;39.716;2.904;2023-01-09T11:25:54;100547.41;;;18.16
61189;BMP280;47054;39.716;2.904;2023-01-09T11:28:39;100542.03;;;18.16
61189;BMP280;47054;39.716;2.904;2023-01-09T11:31:24;100542.81;;;18.17
61189;BMP280;47054;39.716;2.904;2023-01-09T11:34:15;100550.53;;;18.18
61189;BMP280;47054;39.716;2.904;2023-01-09T11:37:08;100542.47;;;18.18
61189;BMP280;47054;39.716;2.904;2023-01-09T11:39:55;100535.53;;;18.17
61189;BMP280;47054;39.716;2.904;2023-01-09T11:42:40;100529.41;;;18.17
61189;BMP280;47054;39.716;2.904;2023-01-09T11:45:46;100520.16;;;18.14
61189;BMP280;47054;39.716;2.904;2023-01-09T11:48:55;100550.53;;;18.18
61189;BMP280;47054;39.716;2.904;2023-01-09T11:51:41;100527.50;;;18.17
61189;BMP280;47054;39.716;2.904;2023-01-09T11:54:31;100533.66;;;18.18
61189;BMP280;47054;39.716;2.904;2023-01-09T11:57:20;100510.63;;;18.17
61189;BMP280;47054;39.716;2.904;2023-01-09T12:00:24;100512.97;;;18.18
61189;BMP280;47054;39.716;2.904;2023-01-09T12:03:44;100504.13;;;18.18
61189;BMP280;47054;39.716;2.904;2023-01-09T12:06:42;100506.03;;;18.17
61189;BMP280;47054;39.716;2.904;2023-01-09T12:13:29;100514.84;;;18.18
61189;BMP280;47054;39.716;2.904;2023-01-09T12:25:09;100506.03;;;18.17
61189;BMP280;47054;39.716;2.904;2023-01-09T12:31:19;100525.94;;;18.16
61189;BMP280;47054;39.716;2.904;2023-01-09T12:34:19;100516.75;;;18.17
61189;BMP280;47054;39.716;2.904;2023-01-09T12:43:24;100504.91;;;18.18
61189;BMP280;47054;39.716;2.904;2023-01-09T12:46:20;100497.97;;;18.17
61189;BMP280;47054;39.716;2.904;2023-01-09T12:49:22;100490.69;;;18.18
61189;BMP280;47054;39.716;2.904;2023-01-09T12:52:12;100489.16;;;18.17
61189;BMP280;47054;39.716;2.904;2023-01-09T12:57:54;100486.84;;;18.19
61189;BMP280;47054;39.716;2.904;2023-01-09T13:00:43;100502.94;;;18.19
61189;BMP280;47054;39.716;2.904;2023-01-09T13:03:37;100507.19;;;18.20
61189;BMP280;47054;39.716;2.904;2023-01-09T13:06:25;100496.44;;;18.20
61189;BMP280;47054;39.716;2.904;2023-01-09T13:09:15;100490.31;;;18.19
61189;BMP280;47054;39.716;2.904;2023-01-09T13:12:06;100506.41;;;18.19
61189;BMP280;47054;39.716;2.904;2023-01-09T13:14:59;100478.06;;;18.22
61189;BMP280;47054;39.716;2.904;2023-01-09T13:17:52;100493.78;;;18.20
61189;BMP280;47054;39.716;2.904;2023-01-09T13:20:44;100476.84;;;18.16
61189;BMP280;47054;39.716;2.904;2023-01-09T13:23:50;100516.81;;;18.21
61189;BMP280;47054;39.716;2.904;2023-01-09T13:26:42;100503.38;;;18.21
61189;BMP280;47054;39.716;2.904;2023-01-09T13:30:02;100514.53;;;18.23
61189;BMP280;47054;39.716;2.904;2023-01-09T13:35:58;100514.13;;;18.21
61189;BMP280;47054;39.716;2.904;2023-01-09T13:38:48;100499.91;;;18.20
61189;BMP280;47054;39.716;2.904;2023-01-09T13:41:45;100526.38;;;18.22
61189;BMP280;47054;39.716;2.904;2023-01-09T13:44:52;100509.09;;;18.19
61189;BMP280;47054;39.716;2.904;2023-01-09T13:47:38;100514.13;;;18.21
61189;BMP280;47054;39.716;2.904;2023-01-09T13:50:25;100523.28;;;18.20
61189;BMP280;47054;39.716;2.904;2023-01-09T13:56:08;100498.78;;;18.21
61189;BMP280;47054;39.716;2.904;2023-01-09T13:58:58;100507.22;;;18.23
61189;BMP280;47054;39.716;2.904;2023-01-09T14:01:44;100511.84;;;18.23
61189;BMP280;47054;39.716;2.904;2023-01-09T14:04:41;100514.94;;;18.25
61189;BMP280;47054;39.716;2.904;2023-01-09T14:13:36;100509.91;;;18.23
61189;BMP280;47054;39.716;2.904;2023-01-09T14:16:24;100503.41;;;18.24
61189;BMP280;47054;39.716;2.904;2023-01-09T14:21:58;100487.28;;;18.21
61189;BMP280;47054;39.716;2.904;2023-01-09T14:24:45;100513.38;;;18.24
61189;BMP280;47054;39.716;2.904;2023-01-09T14:33:37;100542.81;;;18.17
61189;BMP280;47054;39.716;2.904;2023-01-09T14:36:21;100530.56;;;18.19
61189;BMP280;47054;39.716;2.904;2023-01-09T14:39:11;100527.53;;;18.21
61189;BMP280;47054;39.716;2.904;2023-01-09T14:41:59;100533.69;;;18.21
61189;BMP280;47054;39.716;2.904;2023-01-09T14:48:12;100574.69;;;18.22
61189;BMP280;47054;39.716;2.904;2023-01-09T14:50:57;100555.53;;;18.23
61189;BMP280;47054;39.716;2.904;2023-01-09T14:53:42;100541.00;;;18.24
61189;BMP280;47054;39.716;2.904;2023-01-09T14:56:29;100536.38;;;18.21
61189;BMP280;47054;39.716;2.904;2023-01-09T14:59:15;100537.16;;;18.25
61189;BMP280;47054;39.716;2.904;2023-01-09T15:01:59;100525.31;;;18.26
61189;BMP280;47054;39.716;2.904;2023-01-09T15:04:44;100544.47;;;18.25
61189;BMP280;47054;39.716;2.904;2023-01-09T15:07:51;100541.06;;;18.28
61189;BMP280;47054;39.716;2.904;2023-01-09T15:10:37;100557.84;;;18.21
61189;BMP280;47054;39.716;2.904;2023-01-09T15:13:33;100547.56;;;18.27
61189;BMP280;47054;39.716;2.904;2023-01-09T15:16:21;100555.94;;;18.25
61189;BMP280;47054;39.716;2.904;2023-01-09T15:19:07;100558.28;;;18.27
61189;BMP280;47054;39.716;2.904;2023-01-09T15:22:02;100570.59;;;18.28
61189;BMP280;47054;39.716;2.904;2023-01-09T15:24:47;100564.44;;;18.27
61189;BMP280;47054;39.716;2.904;2023-01-09T15:27:33;100573.63;;;18.26
61189;BMP280;47054;39.716;2.904;2023-01-09T15:30:22;100600.88;;;18.28
61189;BMP280;47054;39.716;2.904;2023-01-09T15:33:14;100595.50;;;18.28
61189;BMP280;47054;39.716;2.904;2023-01-09T15:36:01;100597.44;;;18.28
61189;BMP280;47054;39.716;2.904;2023-01-09T15:38:49;100596.66;;;18.27
61189;BMP280;47054;39.716;2.904;2023-01-09T15:41:35;100606.94;;;18.25
61189;BMP280;47054;39.716;2.904;2023-01-09T15:44:41;100621.59;;;18.28
61189;BMP280;47054;39.716;2.904;2023-01-09T15:47:30;100633.84;;;18.29
61189;BMP280;47054;39.716;2.904;2023-01-09T15:50:19;100622.34;;;18.28
61189;BMP280;47054;39.716;2.904;2023-01-09T15:53:04;100620.41;;;18.29
61189;BMP280;47054;39.716;2.904;2023-01-09T15:56:02;100621.19;;;18.29
61189;BMP280;47054;39.716;2.904;2023-01-09T15:58:48;100610.06;;;18.27
61189;BMP280;47054;39.716;2.904;2023-01-09T16:01:38;100612.31;;;18.25
61189;BMP280;47054;39.716;2.904;2023-01-09T16:04:23;100618.13;;;18.27
61189;BMP280;47054;39.716;2.904;2023-01-09T16:07:12;100612.38;;;18.29
61189;BMP280;47054;39.716;2.904;2023-01-09T16:09:58;100603.16;;;18.26
61189;BMP280;47054;39.716;2.904;2023-01-09T16:12:43;100639.22;;;18.29
61189;BMP280;47054;39.716;2.904;2023-01-09T16:15:31;100640.00;;;18.29
61189;BMP280;47054;39.716;2.904;2023-01-09T16:18:22;100636.53;;;18.29
61189;BMP280;47054;39.716;2.904;2023-01-09T16:24:42;100637.31;;;18.29
61189;BMP280;47054;39.716;2.904;2023-01-09T16:27:33;100620.41;;;18.29
61189;BMP280;47054;39.716;2.904;2023-01-09T16:30:25;100647.25;;;18.29
61189;BMP280;47054;39.716;2.904;2023-01-09T16:33:19;100625.03;;;18.28
61189;BMP280;47054;39.716;2.904;2023-01-09T16:36:05;100632.34;;;18.28
61189;BMP280;47054;39.716;2.904;2023-01-09T16:38:51;100637.63;;;18.24
61189;BMP280;47054;39.716;2.904;2023-01-09T16:41:36;100653.81;;;18.28
61189;BMP280;47054;39.716;2.904;2023-01-09T16:44:38;100669.13;;;18.27
61189;BMP280;47054;39.716;2.904;2023-01-09T16:47:23;100645.75;;;18.28
61189;BMP280;47054;39.716;2.904;2023-01-09T16:50:12;100643.81;;;18.28
61189;BMP280;47054;39.716;2.904;2023-01-09T16:52:56;100665.16;;;18.18
61189;BMP280;47054;39.716;2.904;2023-01-09T16:55:43;100670.66;;;18.28
61189;BMP280;47054;39.716;2.904;2023-01-09T16:58:30;100651.88;;;18.28
61189;BMP280;47054;39.716;2.904;2023-01-09T17:01:15;100644.56;;;18.29
61189;BMP280;47054;39.716;2.904;2023-01-09T17:04:00;100649.94;;;18.29
61189;BMP280;47054;39.716;2.904;2023-01-09T17:06:46;100661.47;;;18.29
61189;BMP280;47054;39.716;2.904;2023-01-09T17:09:31;100653.81;;;18.28
61189;BMP280;47054;39.716;2.904;2023-01-09T17:12:18;100668.75;;;18.29
61189;BMP280;47054;39.716;2.904;2023-01-09T17:15:03;100664.56;;;18.28
61189;BMP280;47054;39.716;2.904;2023-01-09T17:17:48;100669.91;;;18.28
61189;BMP280;47054;39.716;2.904;2023-01-09T17:20:33;100684.84;;;18.29
61189;BMP280;47054;39.716;2.904;2023-01-09T17:23:18;100694.81;;;18.28
61189;BMP280;47054;39.716;2.904;2023-01-09T17:26:04;100727.78;;;18.29
61189;BMP280;47054;39.716;2.904;2023-01-09T17:29:07;100712.09;;;18.27
61189;BMP280;47054;39.716;2.904;2023-01-09T17:31:51;100713.19;;;18.26
61189;BMP280;47054;39.716;2.904;2023-01-09T17:34:36;100740.84;;;18.27
61189;BMP280;47054;39.716;2.904;2023-01-09T17:37:21;100751.91;;;18.25